createdAt,value
2022-11-16T00:01:33.137Z,94099.59
2022-11-16T00:04:01.944Z,94102.06
2022-11-16T00:06:28.989Z,94111.56
2022-11-16T00:09:32.235Z,94114.41
2022-11-16T00:12:01.958Z,94108.06
2022-11-16T00:14:31.352Z,94108.06
2022-11-16T00:16:58.754Z,94107.47
2022-11-16T00:19:26.479Z,94093.63
2022-11-16T00:21:53.573Z,94110.91
2022-11-16T00:24:21.759Z,94123.84
2022-11-16T00:26:48.970Z,94124.13
2022-11-16T00:29:20.726Z,94116.88
2022-11-16T00:31:48.671Z,94122.41
2022-11-16T00:34:15.704Z,94142.53
2022-11-16T00:36:42.265Z,94162.97
2022-11-16T00:39:11.837Z,94159.53
2022-11-16T00:41:38.362Z,94147.09
2022-11-16T00:44:05.095Z,94146.13
2022-11-16T00:46:31.793Z,94148.31
2022-11-16T00:48:58.316Z,94151.44
2022-11-16T00:51:24.923Z,94127.53
2022-11-16T00:53:51.664Z,94127.59
2022-11-16T00:56:18.209Z,94137.97
2022-11-16T00:58:44.706Z,94143.38
2022-11-16T01:01:11.874Z,94153.69
2022-11-16T01:03:39.101Z,94152.28
2022-11-16T01:06:08.192Z,94150.22
2022-11-16T01:08:37.156Z,94160.06
2022-11-16T01:11:23.244Z,94164.31
2022-11-16T01:13:50.563Z,94172.63
2022-11-16T01:16:19.086Z,94163.53
2022-11-16T01:18:50.759Z,94152.41
2022-11-16T01:21:18.521Z,94163.22
2022-11-16T01:23:45.061Z,94168.81
2022-11-16T01:26:11.652Z,94175.50
2022-11-16T01:28:38.175Z,94176.31
2022-11-16T01:31:04.755Z,94165.03
2022-11-16T01:33:31.461Z,94174.53
2022-11-16T01:35:58.029Z,94169.16
2022-11-16T01:38:29.407Z,94172.06
2022-11-16T01:40:56.593Z,94172.72
2022-11-16T01:43:25.548Z,94169.16
2022-11-16T01:45:52.684Z,94194.19
2022-11-16T01:48:25.999Z,94179.28
2022-11-16T01:50:56.359Z,94184.84
2022-11-16T01:53:24.539Z,94172.22
2022-11-16T01:55:52.011Z,94175.53
2022-11-16T01:58:23.097Z,94177.75
2022-11-16T02:00:50.167Z,94173.81
2022-11-16T02:03:21.145Z,94183.50
2022-11-16T02:06:02.512Z,94190.13
2022-11-16T02:09:03.168Z,94176.59
2022-11-16T02:11:38.309Z,94175.06
2022-11-16T02:14:21.489Z,94172.69
2022-11-16T02:17:18.946Z,94175.25
2022-11-16T02:20:12.541Z,94187.84
2022-11-16T02:22:57.376Z,94178.75
2022-11-16T02:25:48.180Z,94185.22
2022-11-16T02:28:14.658Z,94180.63
2022-11-16T02:30:47.397Z,94183.09
2022-11-16T02:33:18.531Z,94179.84
2022-11-16T02:35:52.424Z,94173.09
2022-11-16T02:38:29.457Z,94177.38
2022-11-16T02:41:03.602Z,94158.91
2022-11-16T02:43:35.827Z,94162.09
2022-11-16T02:46:09.784Z,94144.16
2022-11-16T02:48:41.970Z,94162.72
2022-11-16T02:51:08.943Z,94158.44
2022-11-16T02:53:50.937Z,94163.59
2022-11-16T02:56:19.005Z,94166.66
2022-11-16T02:58:47.269Z,94163.22
2022-11-16T03:01:24.089Z,94168.13
2022-11-16T03:04:28.364Z,94165.72
2022-11-16T03:06:58.326Z,94167.78
2022-11-16T03:09:30.136Z,94164.38
2022-11-16T03:12:00.988Z,94154.81
2022-11-16T03:14:52.078Z,94154.81
2022-11-16T03:17:25.462Z,94160.25
2022-11-16T03:20:04.615Z,94157.88
2022-11-16T03:22:35.562Z,94165.59
2022-11-16T03:25:02.762Z,94133.94
2022-11-16T03:27:33.333Z,94146.50
2022-11-16T03:30:04.479Z,94155.63
2022-11-16T03:33:16.429Z,94137.63
2022-11-16T03:36:01.236Z,94148.78
2022-11-16T03:38:28.988Z,94131.75
2022-11-16T03:41:01.779Z,94149.13
2022-11-16T03:43:30.305Z,94144.38
2022-11-16T03:45:57.812Z,94142.94
2022-11-16T03:48:24.986Z,94138.41
2022-11-16T03:50:52.235Z,94128.69
2022-11-16T03:53:18.761Z,94124.91
2022-11-16T03:55:49.618Z,94136.19
2022-11-16T03:58:18.652Z,94135.53
2022-11-16T04:00:45.718Z,94130.91
2022-11-16T04:03:12.928Z,94137.91
2022-11-16T04:05:58.708Z,94142.25
2022-11-16T04:08:43.840Z,94125.06
2022-11-16T04:11:32.933Z,94125.84
2022-11-16T04:14:22.757Z,94128.19
2022-11-16T04:17:08.420Z,94129.09
2022-11-16T04:19:57.937Z,94126.13
2022-11-16T04:22:50.413Z,94120.09
2022-11-16T04:25:27.164Z,94115.97
2022-11-16T04:28:13.416Z,94123.78
2022-11-16T04:31:05.061Z,94112.66
2022-11-16T04:34:04.335Z,94114.81
2022-11-16T04:36:49.099Z,94111.06
2022-11-16T04:39:15.870Z,94112.09
2022-11-16T04:42:00.652Z,94117.28
2022-11-16T04:44:47.169Z,94109.16
2022-11-16T04:47:13.656Z,94093.63
2022-11-16T04:49:40.149Z,94101.94
2022-11-16T04:52:06.733Z,94106.41
2022-11-16T04:54:33.289Z,94102.59
2022-11-16T04:56:59.860Z,94111.03
2022-11-16T04:59:26.555Z,94116.50
2022-11-16T05:02:13.350Z,94112.38
2022-11-16T05:04:42.401Z,94116.63
2022-11-16T05:07:14.710Z,94111.81
2022-11-16T05:09:46.621Z,94118.47
2022-11-16T05:12:25.233Z,94116.03
2022-11-16T05:14:52.594Z,94125.84
2022-11-16T05:17:19.685Z,94121.53
2022-11-16T05:20:04.877Z,94108.72
2022-11-16T05:22:31.792Z,94110.22
2022-11-16T05:24:58.542Z,94111.16
2022-11-16T05:27:27.990Z,94123.94
2022-11-16T05:29:55.301Z,94124.03
2022-11-16T05:32:23.217Z,94124.94
2022-11-16T05:34:50.175Z,94128.63
2022-11-16T05:37:17.559Z,94127.59
2022-11-16T05:39:44.437Z,94129.38
2022-11-16T05:42:11.687Z,94112.75
2022-11-16T05:44:38.289Z,94118.00
2022-11-16T05:47:05.322Z,94126.94
2022-11-16T05:49:32.029Z,94083.97
2022-11-16T05:51:58.568Z,94127.84
2022-11-16T05:54:26.199Z,94123.19
2022-11-16T05:56:53.994Z,94125.03
2022-11-16T05:59:22.264Z,94132.63
2022-11-16T06:01:49.571Z,94128.34
2022-11-16T06:06:57.357Z,94135.63
2022-11-16T06:09:23.971Z,94127.84
2022-11-16T06:11:50.470Z,94128.09
2022-11-16T06:14:17.038Z,94115.97
2022-11-16T06:16:43.715Z,94119.31
2022-11-16T06:19:10.294Z,94133.00
2022-11-16T06:21:36.808Z,94124.03
2022-11-16T06:24:09.232Z,94117.34
2022-11-16T06:26:37.009Z,94122.34
2022-11-16T06:29:04.138Z,94129.81
2022-11-16T06:31:31.263Z,94113.50
2022-11-16T06:33:57.795Z,94108.06
2022-11-16T06:36:24.511Z,94118.34
2022-11-16T06:38:51.321Z,94138.97
2022-11-16T06:41:18.028Z,94141.03
2022-11-16T06:43:44.854Z,94150.41
2022-11-16T06:46:11.695Z,94147.72
2022-11-16T06:48:38.238Z,94142.25
2022-11-16T06:51:04.876Z,94139.47
2022-11-16T06:53:31.548Z,94148.63
2022-11-16T06:56:05.355Z,94157.47
2022-11-16T06:58:32.464Z,94146.75
2022-11-16T07:01:09.344Z,94134.03
2022-11-16T07:03:36.065Z,94145.25
2022-11-16T07:06:10.753Z,94153.41
2022-11-16T07:08:38.104Z,94147.53
2022-11-16T07:11:05.860Z,94156.03
2022-11-16T07:13:33.480Z,94160.94
2022-11-16T07:16:05.625Z,94158.03
2022-11-16T07:18:34.728Z,94155.22
2022-11-16T07:21:15.107Z,94149.44
2022-11-16T07:23:41.692Z,94160.75
2022-11-16T07:26:09.982Z,94156.31
2022-11-16T07:28:36.790Z,94151.94
2022-11-16T07:31:08.862Z,94162.75
2022-11-16T07:33:36.461Z,94151.25
2022-11-16T07:36:08.748Z,94162.34
2022-11-16T07:38:36.080Z,94153.34
2022-11-16T07:41:07.951Z,94158.50
2022-11-16T07:43:37.886Z,94155.47
2022-11-16T07:46:45.392Z,94159.78
2022-11-16T07:48:51.568Z,94159.06
2022-11-16T07:51:20.069Z,94170.03
2022-11-16T07:53:46.616Z,94161.75
2022-11-16T07:56:13.639Z,94176.66
2022-11-16T07:58:40.661Z,94167.34
2022-11-16T08:01:13.181Z,94165.06
2022-11-16T08:03:40.948Z,94158.19
2022-11-16T08:06:21.168Z,94166.66
2022-11-16T08:08:47.768Z,94154.38
2022-11-16T08:11:14.760Z,94159.75
2022-11-16T08:13:42.387Z,94166.25
2022-11-16T08:16:13.207Z,94166.94
2022-11-16T08:18:40.716Z,94158.44
2022-11-16T08:21:09.276Z,94175.50
2022-11-16T08:23:36.492Z,94173.66
2022-11-16T08:26:15.406Z,94173.69
2022-11-16T08:28:44.088Z,94180.00
2022-11-16T08:31:20.951Z,94177.84
2022-11-16T08:33:48.211Z,94179.88
2022-11-16T08:36:17.986Z,94172.88
2022-11-16T08:38:49.604Z,94159.09
2022-11-16T08:44:01.608Z,94153.47
2022-11-16T08:46:28.654Z,94158.16
2022-11-16T08:48:57.195Z,94164.38
2022-11-16T08:51:24.796Z,94169.06
2022-11-16T08:53:56.879Z,94174.34
2022-11-16T08:56:24.079Z,94175.50
2022-11-16T08:58:58.149Z,94180.19
2022-11-16T09:01:27.910Z,94184.72
2022-11-16T09:03:54.961Z,94181.69
2022-11-16T09:06:22.536Z,94171.06
2022-11-16T09:08:49.984Z,94167.38
2022-11-16T09:11:19.801Z,94175.56
2022-11-16T09:13:48.178Z,94184.16
2022-11-16T09:16:16.713Z,94189.44
2022-11-16T09:18:46.775Z,94186.66
2022-11-16T09:21:21.670Z,94182.81
2022-11-16T09:23:49.340Z,94181.53
2022-11-16T09:26:18.936Z,94186.00
2022-11-16T09:28:48.050Z,94191.66
2022-11-16T09:31:17.667Z,94176.81
2022-11-16T09:33:48.721Z,94176.03
2022-11-16T09:36:15.961Z,94182.66
2022-11-16T09:41:50.693Z,94171.78
2022-11-16T09:44:42.152Z,94173.97
2022-11-16T09:47:19.214Z,94164.53
2022-11-16T09:49:58.206Z,94176.78
2022-11-16T09:52:37.535Z,94166.28
2022-11-16T09:55:28.780Z,94180.66
2022-11-16T09:58:00.049Z,94181.59
2022-11-16T10:00:28.969Z,94172.81
2022-11-16T10:03:05.546Z,94168.41
2022-11-16T10:05:45.106Z,94174.47
2022-11-16T10:08:33.848Z,94169.75
2022-11-16T10:11:18.871Z,94166.72
2022-11-16T10:14:03.725Z,94153.34
2022-11-16T10:16:36.857Z,94163.06
2022-11-16T10:19:14.825Z,94159.53
2022-11-16T10:22:08.325Z,94156.00
2022-11-16T10:24:51.129Z,94147.72
2022-11-16T10:27:46.477Z,94172.63
2022-11-16T10:30:20.816Z,94172.81
2022-11-16T10:33:10.966Z,94160.00
2022-11-16T10:35:42.926Z,94143.19
2022-11-16T10:38:22.003Z,94141.16
2022-11-16T10:40:55.332Z,94136.59
2022-11-16T10:43:28.740Z,94134.06
2022-11-16T10:46:20.205Z,94140.19
2022-11-16T10:48:55.426Z,94134.41
2022-11-16T10:51:21.981Z,94141.81
2022-11-16T10:53:49.531Z,94145.44
2022-11-16T10:56:25.077Z,94137.94
2022-11-16T10:58:57.528Z,94142.97
2022-11-16T11:01:41.160Z,94146.13
2022-11-16T11:04:31.514Z,94125.00
2022-11-16T11:07:21.677Z,94138.53
2022-11-16T11:09:54.799Z,94126.63
2022-11-16T11:12:38.969Z,94118.50
2022-11-16T11:15:26.222Z,94127.59
2022-11-16T11:18:30.319Z,94119.84
2022-11-16T11:21:08.079Z,94119.22
2022-11-16T11:23:51.477Z,94110.63
2022-11-16T11:26:36.860Z,94113.03
2022-11-16T11:29:17.011Z,94113.50
2022-11-16T11:31:46.832Z,94083.47
2022-11-16T11:34:21.533Z,94103.59
2022-11-16T11:36:53.596Z,94090.56
2022-11-16T11:39:20.145Z,94105.34
2022-11-16T11:42:01.656Z,94105.66
2022-11-16T11:44:37.569Z,94086.19
2022-11-16T11:50:16.717Z,94097.09
2022-11-16T11:52:59.536Z,94081.06
2022-11-16T11:55:26.322Z,94094.59
2022-11-16T11:57:54.517Z,94080.91
2022-11-16T12:00:21.335Z,94084.53
2022-11-16T12:03:26.021Z,94078.91
2022-11-16T12:06:28.157Z,94077.59
2022-11-16T12:09:14.944Z,94066.22
2022-11-16T12:11:41.412Z,94052.28
2022-11-16T12:14:51.097Z,94056.94
2022-11-16T12:17:30.200Z,94049.59
2022-11-16T12:19:58.193Z,94044.81
2022-11-16T12:22:47.832Z,94044.50
2022-11-16T12:25:33.462Z,94035.53
2022-11-16T12:28:18.402Z,94038.75
2022-11-16T12:31:10.172Z,94030.81
2022-11-16T12:33:44.318Z,94033.28
2022-11-16T12:36:29.463Z,94021.47
2022-11-16T12:39:28.359Z,94028.13
2022-11-16T12:42:13.202Z,94020.28
2022-11-16T12:45:03.880Z,94015.41
2022-11-16T12:48:04.938Z,94019.22
2022-11-16T12:51:05.557Z,94023.09
2022-11-16T12:53:56.144Z,94011.72
2022-11-16T12:56:49.985Z,94006.09
2022-11-16T12:59:37.524Z,94007.44
2022-11-16T13:02:07.132Z,93998.31
2022-11-16T13:04:58.627Z,93991.34
2022-11-16T13:07:31.857Z,94002.59
2022-11-16T13:10:09.629Z,93993.84
2022-11-16T13:12:37.401Z,93981.22
2022-11-16T13:15:04.606Z,93982.44
2022-11-16T13:17:36.796Z,93972.88
2022-11-16T13:20:18.223Z,93973.19
2022-11-16T13:22:53.565Z,93970.34
2022-11-16T13:25:41.293Z,93966.25
2022-11-16T13:28:33.540Z,93970.94
2022-11-16T13:31:35.422Z,93968.47
2022-11-16T13:34:07.526Z,93967.19
2022-11-16T13:36:37.332Z,93964.69
2022-11-16T13:39:06.416Z,93964.66
2022-11-16T13:41:37.730Z,93959.88
2022-11-16T13:44:14.661Z,93951.03
2022-11-16T13:46:56.740Z,93955.66
2022-11-16T13:49:35.066Z,93961.69
2022-11-16T13:52:22.510Z,93954.00
2022-11-16T13:54:52.700Z,93946.25
2022-11-16T13:57:24.978Z,93933.25
2022-11-16T14:00:11.673Z,93947.44
2022-11-16T14:02:42.370Z,93935.00
2022-11-16T14:05:41.850Z,93943.00
2022-11-16T14:08:21.194Z,93941.50
2022-11-16T14:10:50.479Z,93949.28
2022-11-16T14:13:43.945Z,93946.75
2022-11-16T14:16:19.624Z,93946.88
2022-11-16T14:18:51.372Z,93943.25
2022-11-16T14:21:51.467Z,93940.28
2022-11-16T14:24:43.962Z,93937.50
2022-11-16T14:27:36.007Z,93935.09
2022-11-16T14:30:23.297Z,93919.59
2022-11-16T14:32:53.387Z,93924.41
2022-11-16T14:35:34.308Z,93916.47
2022-11-16T14:38:16.656Z,93907.59
2022-11-16T14:40:47.105Z,93911.56
2022-11-16T14:43:44.667Z,93909.31
2022-11-16T14:46:23.187Z,93908.69
2022-11-16T14:48:50.457Z,93908.59
2022-11-16T14:51:21.952Z,93911.81
2022-11-16T14:53:51.992Z,93914.78
2022-11-16T14:56:19.848Z,93921.19
2022-11-16T14:58:56.916Z,93921.44
2022-11-16T15:01:28.259Z,93924.16
2022-11-16T15:04:02.747Z,93930.81
2022-11-16T15:06:33.056Z,93922.59
2022-11-16T15:09:04.180Z,93918.91
2022-11-16T15:11:56.020Z,93898.72
2022-11-16T15:14:29.577Z,93910.75
2022-11-16T15:16:57.821Z,93922.69
2022-11-16T15:19:25.084Z,93910.56
2022-11-16T15:22:00.469Z,93905.22
2022-11-16T15:24:32.646Z,93905.38
2022-11-16T15:27:12.373Z,93896.47
2022-11-16T15:29:39.119Z,93898.38
2022-11-16T15:32:07.086Z,93894.38
2022-11-16T15:34:33.789Z,93895.34
2022-11-16T15:37:00.293Z,93895.66
2022-11-16T15:39:32.929Z,93896.38
2022-11-16T15:42:03.729Z,93894.31
2022-11-16T15:44:31.921Z,93904.13
2022-11-16T15:46:59.404Z,93903.38
2022-11-16T15:49:38.402Z,93901.94
2022-11-16T15:52:05.478Z,93895.44
2022-11-16T15:54:53.137Z,93899.63
2022-11-16T15:57:21.223Z,93893.13
2022-11-16T15:59:50.448Z,93895.44
2022-11-16T16:02:20.793Z,93893.09
2022-11-16T16:04:47.771Z,93890.59
2022-11-16T16:07:36.933Z,93886.03
2022-11-16T16:10:18.662Z,93892.72
2022-11-16T16:13:23.148Z,93888.75
2022-11-16T16:16:24.043Z,93881.88
2022-11-16T16:18:52.254Z,93873.84
2022-11-16T16:21:19.520Z,93880.09
2022-11-16T16:23:52.340Z,93873.53
2022-11-16T16:26:19.049Z,93876.44
2022-11-16T16:28:45.940Z,93879.94
2022-11-16T16:31:13.383Z,93877.19
2022-11-16T16:33:41.158Z,93879.47
2022-11-16T16:36:08.507Z,93873.63
2022-11-16T16:38:35.438Z,93879.84
2022-11-16T16:41:04.826Z,93867.94
2022-11-16T16:43:32.458Z,93875.50
2022-11-16T16:46:03.851Z,93886.16
2022-11-16T16:48:30.942Z,93872.34
2022-11-16T16:50:57.722Z,93878.66
2022-11-16T16:53:24.519Z,93885.97
2022-11-16T16:55:51.663Z,93880.53
2022-11-16T16:58:18.913Z,93879.25
2022-11-16T17:00:46.330Z,93891.69
2022-11-16T17:03:13.235Z,93891.00
2022-11-16T17:05:40.260Z,93898.06
2022-11-16T17:08:07.848Z,93895.78
2022-11-16T17:10:37.273Z,93893.66
2022-11-16T17:13:04.617Z,93884.59
2022-11-16T17:15:32.048Z,93880.03
2022-11-16T17:17:59.923Z,93887.25
2022-11-16T17:20:26.978Z,93886.88
2022-11-16T17:22:54.162Z,93874.88
2022-11-16T17:25:21.571Z,93872.75
2022-11-16T17:27:49.493Z,93864.03
2022-11-16T17:30:17.493Z,93852.59
2022-11-16T17:32:44.994Z,93850.84
2022-11-16T17:35:13.354Z,93832.91
2022-11-16T17:37:41.109Z,93844.03
2022-11-16T17:40:09.741Z,93840.94
2022-11-16T17:42:37.439Z,93838.22
2022-11-16T17:45:05.754Z,93825.53
2022-11-16T17:47:34.240Z,93829.28
2022-11-16T17:50:02.092Z,93821.94
2022-11-16T17:52:29.734Z,93819.03
2022-11-16T17:54:57.438Z,93826.06
2022-11-16T17:57:25.374Z,93831.66
2022-11-16T17:59:53.221Z,93828.94
2022-11-16T18:02:20.237Z,93817.25
2022-11-16T18:04:51.076Z,93813.34
2022-11-16T18:07:18.316Z,93814.84
2022-11-16T18:09:44.945Z,93804.25
2022-11-16T18:12:11.480Z,93804.19
2022-11-16T18:14:38.178Z,93803.06
2022-11-16T18:17:04.890Z,93794.25
2022-11-16T18:19:31.388Z,93779.78
2022-11-16T18:21:58.089Z,93781.16
2022-11-16T18:24:24.611Z,93779.19
2022-11-16T18:26:51.139Z,93774.63
2022-11-16T18:29:19.239Z,93769.47
2022-11-16T18:31:45.775Z,93761.31
2022-11-16T18:34:14.363Z,93766.25
2022-11-16T18:36:41.046Z,93758.06
2022-11-16T18:39:08.322Z,93758.41
2022-11-16T18:41:35.105Z,93750.16
2022-11-16T18:44:02.357Z,93757.72
2022-11-16T18:46:31.082Z,93775.28
2022-11-16T18:48:58.319Z,93785.00
2022-11-16T18:51:27.353Z,93783.09
2022-11-16T18:53:54.493Z,93770.38
2022-11-16T18:56:21.477Z,93749.88
2022-11-16T18:58:51.276Z,93759.06
2022-11-16T19:01:20.757Z,93762.72
2022-11-16T19:03:47.402Z,93759.06
2022-11-16T19:06:17.294Z,93746.00
2022-11-16T19:08:47.787Z,93727.28
2022-11-16T19:11:18.872Z,93716.38
2022-11-16T19:13:45.523Z,93695.06
2022-11-16T19:16:13.534Z,93707.47
2022-11-16T19:18:40.860Z,93696.78
2022-11-16T19:21:13.154Z,93685.88
2022-11-16T19:23:43.023Z,93697.41
2022-11-16T19:26:12.281Z,93702.91
2022-11-16T19:28:40.568Z,93699.72
2022-11-16T19:31:12.688Z,93723.53
2022-11-16T19:33:40.395Z,93706.03
2022-11-16T19:36:07.994Z,93694.75
2022-11-16T19:38:34.660Z,93716.59
2022-11-16T19:41:01.427Z,93700.84
2022-11-16T19:43:28.166Z,93708.38
2022-11-16T19:45:54.916Z,93689.69
2022-11-16T19:48:21.555Z,93699.50
2022-11-16T19:50:48.187Z,93691.84
2022-11-16T19:53:14.946Z,93692.84
2022-11-16T19:55:41.840Z,93697.16
2022-11-16T19:58:08.397Z,93695.56
2022-11-16T20:00:35.208Z,93688.88
2022-11-16T20:03:01.854Z,93683.94
2022-11-16T20:05:30.060Z,93667.91
2022-11-16T20:07:56.668Z,93674.38
2022-11-16T20:10:23.237Z,93660.88
2022-11-16T20:12:49.843Z,93642.44
2022-11-16T20:15:16.565Z,93649.69
2022-11-16T20:17:43.168Z,93644.88
2022-11-16T20:20:10.128Z,93635.97
2022-11-16T20:22:36.725Z,93660.75
2022-11-16T20:25:03.410Z,93665.59
2022-11-16T20:27:30.040Z,93671.06
2022-11-16T20:29:56.763Z,93671.38
2022-11-16T20:32:23.998Z,93692.25
2022-11-16T20:34:50.998Z,93687.81
2022-11-16T20:37:17.614Z,93680.28
2022-11-16T20:39:46.900Z,93685.41
2022-11-16T20:42:13.988Z,93685.97
2022-11-16T20:44:40.633Z,93662.34
2022-11-16T20:47:07.292Z,93678.56
2022-11-16T20:49:34.156Z,93676.19
2022-11-16T20:52:01.140Z,93687.75
2022-11-16T20:54:27.959Z,93670.22
2022-11-16T20:56:54.690Z,93690.44
2022-11-16T20:59:21.497Z,93696.19
2022-11-16T21:01:52.409Z,93685.06
2022-11-16T21:04:19.075Z,93708.13
2022-11-16T21:06:45.862Z,93704.41
2022-11-16T21:09:15.567Z,93708.69
2022-11-16T21:12:00.770Z,93724.63
2022-11-16T21:14:27.490Z,93725.47
2022-11-16T21:16:54.091Z,93735.97
2022-11-16T21:19:20.776Z,93732.41
2022-11-16T21:21:47.366Z,93731.41
2022-11-16T21:24:13.983Z,93704.53
2022-11-16T21:26:40.719Z,93694.59
2022-11-16T21:29:07.322Z,93704.81
2022-11-16T21:31:36.127Z,93712.34
2022-11-16T21:34:03.263Z,93702.53
2022-11-16T21:36:32.190Z,93705.31
2022-11-16T21:38:59.396Z,93707.31
2022-11-16T21:41:27.031Z,93697.75
2022-11-16T21:43:53.810Z,93696.03
2022-11-16T21:46:22.700Z,93703.38
2022-11-16T21:48:51.164Z,93706.06
2022-11-16T21:51:19.935Z,93694.19
2022-11-16T21:53:46.887Z,93696.50
2022-11-16T21:56:16.357Z,93702.47
2022-11-16T21:58:43.501Z,93698.63
2022-11-16T22:01:11.373Z,93682.19
2022-11-16T22:03:38.582Z,93685.38
2022-11-16T22:06:25.385Z,93697.03
2022-11-16T22:08:52.384Z,93693.09
2022-11-16T22:11:22.156Z,93685.03
2022-11-16T22:13:49.800Z,93684.34
2022-11-16T22:16:18.070Z,93690.16
2022-11-16T22:18:44.690Z,93688.88
2022-11-16T22:21:11.688Z,93662.41
2022-11-16T22:23:39.145Z,93668.13
2022-11-16T22:26:09.156Z,93685.16
2022-11-16T22:28:36.661Z,93668.72
2022-11-16T22:31:07.561Z,93678.03
2022-11-16T22:33:35.035Z,93677.41
2022-11-16T22:36:02.138Z,93672.03
2022-11-16T22:38:29.002Z,93660.38
2022-11-16T22:40:57.019Z,93666.06
2022-11-16T22:43:26.122Z,93651.09
2022-11-16T22:46:00.359Z,93674.41
2022-11-16T22:48:31.333Z,93664.03
2022-11-16T22:51:26.904Z,93666.44
2022-11-16T22:53:58.512Z,93649.88
2022-11-16T22:56:25.947Z,93671.16
2022-11-16T22:58:52.889Z,93664.63
2022-11-16T23:01:20.322Z,93662.78
2022-11-16T23:03:47.928Z,93667.03
2022-11-16T23:06:15.237Z,93665.50
2022-11-16T23:08:41.979Z,93661.59
2022-11-16T23:11:31.803Z,93661.47
2022-11-16T23:14:17.322Z,93653.13
2022-11-16T23:16:44.693Z,93663.34
2022-11-16T23:19:31.941Z,93670.03
2022-11-16T23:22:18.060Z,93655.00
2022-11-16T23:25:04.000Z,93660.91
2022-11-16T23:27:44.679Z,93666.84
2022-11-16T23:30:13.076Z,93672.22
2022-11-16T23:32:40.152Z,93677.81
2022-11-16T23:35:07.033Z,93689.47
2022-11-16T23:37:33.659Z,93676.19
2022-11-16T23:40:00.378Z,93684.91
2022-11-16T23:42:45.314Z,93674.31
2022-11-16T23:45:11.951Z,93664.75
2022-11-16T23:47:38.568Z,93667.47
2022-11-16T23:50:05.821Z,93678.84
2022-11-16T23:52:32.420Z,93664.47
2022-11-16T23:54:58.974Z,93669.38
2022-11-16T23:57:25.699Z,93671.34
2022-11-16T23:59:52.281Z,93681.59
